Time;durP1;ratioP1;P1;durP2;ratioP2;P2;SDS_P1;SDS_P2;PMS_P1;PMS_P2;Temp;Humidity;BMP_temperature;BMP_pressure;BME280_temperature;BME280_humidity;BME280_pressure;Samples;Min_cycle;Max_cycle;Signal;HPM_P1;HPM_P2
2021/04/27 00:00:25;;;;;;;3.90;2.70;;;;;;;;;;4993079;28;20632;-71
2021/04/27 00:02:51;;;;;;;3.73;2.93;;;;;;;;;;4994377;28;20180;-71
2021/04/27 00:05:17;;;;;;;5.30;2.70;;;;;;;;;;4994159;28;20667;-71
2021/04/27 00:07:43;;;;;;;5.77;3.20;;;;;;;;;;4993123;28;20184;-71
2021/04/27 00:10:10;;;;;;;3.97;3.00;;;;;;;;;;4992832;28;20187;-71
2021/04/27 00:12:36;;;;;;;3.67;3.00;;;;;;;;;;4999882;28;20191;-72
2021/04/27 00:15:02;;;;;;;4.20;3.17;;;;;;;;;;5013544;28;20286;-71
2021/04/27 00:17:28;;;;;;;4.73;2.90;;;;;;;;;;5013574;28;20230;-71
2021/04/27 00:19:54;;;;;;;4.50;2.93;;;;;;;;;;5013416;28;20682;-71
2021/04/27 00:22:20;;;;;;;5.60;3.10;;;;;;;;;;5012450;28;20700;-71
2021/04/27 00:24:46;;;;;;;4.03;2.97;;;;;;;;;;5012257;28;20199;-71
2021/04/27 00:27:12;;;;;;;5.47;2.83;;;;;;;;;;5012167;28;20222;-71
2021/04/27 00:29:38;;;;;;;6.40;3.30;;;;;;;;;;5012116;28;20183;-71
2021/04/27 00:32:04;;;;;;;5.67;3.00;;;;;;;;;;5013343;28;20179;-71
2021/04/27 00:34:30;;;;;;;5.07;3.30;;;;;;;;;;5012074;28;20223;-71
2021/04/27 00:36:56;;;;;;;6.07;3.10;;;;;;;;;;5011530;28;20671;-71
2021/04/27 00:39:22;;;;;;;4.63;3.17;;;;;;;;;;5011683;28;20618;-71
2021/04/27 00:41:48;;;;;;;5.47;3.37;;;;;;;;;;5011814;28;20175;-71
2021/04/27 00:44:13;;;;;;;4.10;3.10;;;;;;;;;;5011837;28;20206;-71
2021/04/27 00:46:39;;;;;;;8.43;3.37;;;;;;;;;;5013045;28;20175;-71
2021/04/27 00:49:05;;;;;;;7.00;3.47;;;;;;;;;;5013086;28;20255;-71
2021/04/27 00:51:32;;;;;;;4.80;3.10;;;;;;;;;;5011753;28;20186;-71
2021/04/27 00:53:58;;;;;;;4.30;3.30;;;;;;;;;;5011719;28;20171;-71
2021/04/27 00:56:24;;;;;;;4.87;3.30;;;;;;;;;;5011626;28;20182;-71
2021/04/27 00:58:50;;;;;;;4.17;3.07;;;;;;;;;;5011728;28;20203;-71
2021/04/27 01:01:16;;;;;;;6.77;3.50;;;;;;;;;;5012701;28;20528;-72
2021/04/27 01:03:42;;;;;;;4.80;3.03;;;;;;;;;;5011472;28;20186;-71
2021/04/27 01:06:08;;;;;;;6.27;3.17;;;;;;;;;;5011685;28;20237;-71
2021/04/27 01:08:43;;;;;;;6.23;3.27;;;;;;;;;;5011425;28;20183;-71
2021/04/27 01:11:09;;;;;;;4.93;2.67;;;;;;;;;;5012632;28;20654;-71
2021/04/27 01:13:43;;;;;;;6.17;3.20;;;;;;;;;;5012579;28;20183;-71
2021/04/27 01:16:09;;;;;;;4.03;3.40;;;;;;;;;;4995469;28;20183;-71
2021/04/27 01:18:38;;;;;;;4.70;2.53;;;;;;;;;;5011100;28;20206;-71
2021/04/27 01:21:04;;;;;;;5.23;3.00;;;;;;;;;;5011188;28;20179;-71
2021/04/27 01:24:06;;;;;;;3.67;3.07;;;;;;;;;;5012436;28;20176;-71
2021/04/27 01:26:36;;;;;;;3.93;2.70;;;;;;;;;;4990495;28;20674;-71
2021/04/27 01:29:03;;;;;;;3.43;3.00;;;;;;;;;;5004470;28;20322;-71
2021/04/27 01:31:29;;;;;;;4.13;2.70;;;;;;;;;;4994774;28;20176;-71
2021/04/27 01:33:55;;;;;;;3.87;2.73;;;;;;;;;;5010974;28;20183;-71
2021/04/27 01:36:21;;;;;;;4.37;2.97;;;;;;;;;;5011251;28;20236;-71
2021/04/27 01:38:47;;;;;;;3.13;2.60;;;;;;;;;;5011067;28;20233;-71
2021/04/27 01:41:13;;;;;;;4.80;3.00;;;;;;;;;;5011003;28;20185;-71
2021/04/27 01:43:39;;;;;;;4.67;2.80;;;;;;;;;;5010929;28;20193;-71
2021/04/27 01:46:06;;;;;;;3.83;2.97;;;;;;;;;;5011096;28;20191;-71
2021/04/27 01:48:35;;;;;;;4.47;3.10;;;;;;;;;;5012007;28;20176;-71
2021/04/27 01:51:01;;;;;;;3.93;3.30;;;;;;;;;;5010875;28;20187;-71
2021/04/27 01:53:27;;;;;;;3.93;2.63;;;;;;;;;;5010933;28;20237;-71
2021/04/27 01:55:53;;;;;;;4.53;2.73;;;;;;;;;;5010999;28;20213;-72
2021/04/27 01:58:19;;;;;;;3.70;2.50;;;;;;;;;;5010847;28;20211;-71
2021/04/27 02:00:45;;;;;;;3.20;2.67;;;;;;;;;;5010770;28;20187;-71
2021/04/27 02:03:11;;;;;;;3.07;2.70;;;;;;;;;;5010899;28;20218;-71
2021/04/27 02:05:37;;;;;;;4.30;2.80;;;;;;;;;;5011953;28;20569;-71
2021/04/27 02:08:03;;;;;;;5.33;2.80;;;;;;;;;;5010896;28;20188;-71
2021/04/27 02:10:29;;;;;;;9.10;3.10;;;;;;;;;;5012193;28;20576;-72
2021/04/27 02:12:56;;;;;;;4.07;2.70;;;;;;;;;;5010833;28;20266;-71
2021/04/27 02:15:22;;;;;;;5.40;2.67;;;;;;;;;;5010793;28;20203;-71
2021/04/27 02:17:54;;;;;;;4.00;2.80;;;;;;;;;;5012001;28;20247;-71
2021/04/27 02:20:27;;;;;;;3.80;2.70;;;;;;;;;;5011665;28;20182;-71
2021/04/27 02:22:53;;;;;;;3.47;2.53;;;;;;;;;;5011935;28;20848;-71
2021/04/27 02:25:20;;;;;;;3.13;2.70;;;;;;;;;;5011722;28;20198;-71
2021/04/27 02:27:46;;;;;;;4.63;2.80;;;;;;;;;;5010841;28;20179;-71
2021/04/27 02:30:13;;;;;;;6.13;2.60;;;;;;;;;;5010465;28;20210;-71
2021/04/27 02:32:39;;;;;;;8.70;3.17;;;;;;;;;;5010704;28;20204;-71
2021/04/27 02:35:05;;;;;;;3.53;2.77;;;;;;;;;;5011419;28;20298;-71
2021/04/27 02:37:31;;;;;;;4.13;2.60;;;;;;;;;;5010615;28;20202;-71
2021/04/27 02:39:57;;;;;;;3.43;2.67;;;;;;;;;;5010410;28;20814;-71
2021/04/27 02:42:25;;;;;;;4.60;2.97;;;;;;;;;;5011804;28;20186;-71
2021/04/27 02:44:51;;;;;;;4.10;3.07;;;;;;;;;;5011598;28;20219;-71
2021/04/27 02:47:17;;;;;;;4.03;2.63;;;;;;;;;;5010550;28;20181;-71
2021/04/27 02:49:43;;;;;;;5.33;2.77;;;;;;;;;;5011697;28;20664;-71
2021/04/27 02:52:09;;;;;;;4.53;2.57;;;;;;;;;;5010278;28;20190;-71
2021/04/27 02:54:35;;;;;;;6.00;2.80;;;;;;;;;;5011613;28;20657;-71
2021/04/27 02:57:01;;;;;;;4.33;2.87;;;;;;;;;;5011525;28;20207;-71
2021/04/27 02:59:27;;;;;;;3.27;2.40;;;;;;;;;;5011053;28;20267;-71
2021/04/27 03:01:53;;;;;;;4.83;3.07;;;;;;;;;;5012435;28;20186;-71
2021/04/27 03:04:19;;;;;;;4.70;2.73;;;;;;;;;;5013631;28;20678;-71
2021/04/27 03:06:45;;;;;;;5.77;3.00;;;;;;;;;;5014893;28;20232;-71
2021/04/27 03:09:11;;;;;;;5.80;2.83;;;;;;;;;;5013768;28;20179;-71
2021/04/27 03:11:36;;;;;;;3.30;2.70;;;;;;;;;;5014666;28;20526;-71
2021/04/27 03:14:02;;;;;;;6.03;2.77;;;;;;;;;;5013631;28;20203;-71
2021/04/27 03:16:28;;;;;;;5.37;2.70;;;;;;;;;;5014816;28;20180;-71
2021/04/27 03:18:54;;;;;;;5.80;2.80;;;;;;;;;;5014739;28;20292;-71
2021/04/27 03:21:20;;;;;;;4.50;2.57;;;;;;;;;;5013397;28;20251;-71
2021/04/27 03:23:46;;;;;;;7.43;2.70;;;;;;;;;;5014625;28;20608;-71
2021/04/27 03:26:13;;;;;;;4.40;2.67;;;;;;;;;;5013385;28;20176;-71
2021/04/27 03:28:41;;;;;;;3.97;2.50;;;;;;;;;;5013518;28;20193;-71
2021/04/27 03:31:07;;;;;;;3.07;2.40;;;;;;;;;;4996925;28;20191;-72
2021/04/27 03:33:33;;;;;;;4.13;2.40;;;;;;;;;;5013131;28;20190;-71
2021/04/27 03:35:59;;;;;;;3.60;2.30;;;;;;;;;;5014749;28;20692;-72
2021/04/27 03:38:25;;;;;;;2.80;2.30;;;;;;;;;;5013078;28;20212;-72
2021/04/27 03:40:51;;;;;;;5.40;2.57;;;;;;;;;;5013031;28;20255;-72
2021/04/27 03:43:16;;;;;;;3.43;2.40;;;;;;;;;;5014225;28;20269;-73
2021/04/27 03:45:42;;;;;;;4.40;2.30;;;;;;;;;;5012966;28;20253;-72
2021/04/27 03:48:12;;;;;;;3.63;2.33;;;;;;;;;;5014099;28;20185;-72
2021/04/27 03:50:38;;;;;;;6.33;2.37;;;;;;;;;;5013982;28;20227;-71
2021/04/27 03:53:04;;;;;;;2.97;2.33;;;;;;;;;;5012793;28;20266;-72
2021/04/27 03:55:30;;;;;;;3.43;2.10;;;;;;;;;;5014005;28;20195;-76
2021/04/27 03:57:56;;;;;;;5.37;2.40;;;;;;;;;;5013841;28;20203;-74
2021/04/27 04:00:22;;;;;;;4.97;2.17;;;;;;;;;;5013659;28;20248;-74
2021/04/27 04:02:48;;;;;;;2.77;2.20;;;;;;;;;;4996220;28;20176;-74
2021/04/27 04:05:15;;;;;;;4.33;2.10;;;;;;;;;;5013755;28;20198;-74
2021/04/27 04:07:41;;;;;;;3.73;2.10;;;;;;;;;;5012580;28;20654;-74
2021/04/27 04:10:07;;;;;;;4.27;2.20;;;;;;;;;;5012324;28;20563;-74
2021/04/27 04:12:33;;;;;;;3.30;2.20;;;;;;;;;;5012326;28;20229;-74
2021/04/27 04:14:59;;;;;;;3.03;2.10;;;;;;;;;;5013434;28;20208;-74
2021/04/27 04:17:25;;;;;;;4.33;2.37;;;;;;;;;;5012315;28;20213;-74
2021/04/27 04:19:51;;;;;;;3.30;2.10;;;;;;;;;;5013426;28;20189;-74
2021/04/27 04:22:17;;;;;;;3.67;2.10;;;;;;;;;;5012127;28;20208;-75
2021/04/27 04:24:43;;;;;;;4.43;2.20;;;;;;;;;;5012031;28;20291;-74
2021/04/27 04:27:09;;;;;;;4.57;2.10;;;;;;;;;;5012244;28;20269;-74
2021/04/27 04:29:35;;;;;;;4.00;2.30;;;;;;;;;;5013250;28;20174;-75
2021/04/27 04:32:01;;;;;;;3.57;2.17;;;;;;;;;;5013178;28;20186;-74
2021/04/27 04:34:27;;;;;;;3.17;1.77;;;;;;;;;;5011850;28;20311;-74
2021/04/27 04:36:53;;;;;;;4.93;2.30;;;;;;;;;;5012023;28;20176;-74
2021/04/27 04:39:19;;;;;;;2.97;1.90;;;;;;;;;;5013138;28;20176;-74
2021/04/27 04:41:45;;;;;;;3.77;2.17;;;;;;;;;;5013012;28;20665;-74
2021/04/27 04:44:11;;;;;;;3.13;2.03;;;;;;;;;;5013250;28;20556;-74
2021/04/27 04:46:37;;;;;;;4.80;2.07;;;;;;;;;;5012052;28;20179;-73
2021/04/27 04:49:03;;;;;;;6.27;1.70;;;;;;;;;;5011869;28;20210;-73
2021/04/27 04:51:29;;;;;;;5.37;2.00;;;;;;;;;;5011967;28;20719;-74
2021/04/27 04:53:55;;;;;;;5.90;2.43;;;;;;;;;;5012928;28;20180;-74
2021/04/27 04:56:21;;;;;;;3.40;2.30;;;;;;;;;;5007876;28;20190;-73
2021/04/27 04:58:47;;;;;;;6.63;2.30;;;;;;;;;;5003466;28;20210;-73
2021/04/27 05:01:13;;;;;;;5.10;2.33;;;;;;;;;;5000192;28;20648;-74
2021/04/27 05:03:39;;;;;;;2.90;2.10;;;;;;;;;;5003969;28;20188;-74
2021/04/27 05:06:10;;;;;;;3.50;2.23;;;;;;;;;;5011438;28;20191;-74
2021/04/27 05:08:43;;;;;;;4.43;2.23;;;;;;;;;;5011645;28;20187;-76
2021/04/27 05:11:09;;;;;;;5.07;2.13;;;;;;;;;;5012239;28;20260;-73
2021/04/27 05:13:35;;;;;;;2.80;1.93;;;;;;;;;;5012587;28;20219;-73
2021/04/27 05:16:01;;;;;;;4.23;2.07;;;;;;;;;;4995042;28;20202;-73
2021/04/27 05:18:27;;;;;;;3.37;2.00;;;;;;;;;;5011282;28;20240;-73
2021/04/27 05:20:53;;;;;;;4.50;1.93;;;;;;;;;;5010979;28;20269;-72
2021/04/27 05:23:22;;;;;;;4.20;2.30;;;;;;;;;;5011679;28;20175;-73
2021/04/27 05:25:47;;;;;;;5.67;2.30;;;;;;;;;;5012414;28;20564;-73
2021/04/27 05:28:13;;;;;;;1.87;1.60;;;;;;;;;;5012400;28;20183;-73
2021/04/27 05:30:39;;;;;;;6.07;2.13;;;;;;;;;;5012130;28;20623;-73
2021/04/27 05:33:05;;;;;;;2.67;1.87;;;;;;;;;;5010774;28;20246;-73
2021/04/27 05:35:31;;;;;;;3.87;1.90;;;;;;;;;;5012103;28;20304;-73
2021/04/27 05:37:57;;;;;;;2.80;1.87;;;;;;;;;;5011010;28;20288;-73
2021/04/27 05:40:23;;;;;;;5.00;1.83;;;;;;;;;;5010786;28;20264;-73
2021/04/27 05:42:49;;;;;;;3.60;1.47;;;;;;;;;;5012046;28;20245;-73
2021/04/27 05:45:15;;;;;;;3.43;1.67;;;;;;;;;;5012076;28;20233;-73
2021/04/27 05:47:41;;;;;;;4.50;1.83;;;;;;;;;;5009996;28;20288;-72
2021/04/27 05:50:07;;;;;;;2.57;1.70;;;;;;;;;;5029473;28;20200;-72
2021/04/27 05:52:33;;;;;;;4.27;1.70;;;;;;;;;;5030281;28;20646;-71
2021/04/27 05:54:59;;;;;;;5.40;1.70;;;;;;;;;;5031592;28;20205;-71
2021/04/27 05:57:25;;;;;;;6.77;1.80;;;;;;;;;;5031640;28;20289;-71
2021/04/27 05:59:51;;;;;;;10.00;2.20;;;;;;;;;;5021524;28;20629;-72
2021/04/27 06:02:17;;;;;;;2.90;1.60;;;;;;;;;;5010165;28;20171;-71
2021/04/27 06:04:43;;;;;;;5.60;1.80;;;;;;;;;;5010258;28;20207;-72
2021/04/27 06:07:09;;;;;;;2.70;1.77;;;;;;;;;;5010455;28;20677;-71
2021/04/27 06:09:36;;;;;;;3.50;1.63;;;;;;;;;;5011574;28;20172;-73
2021/04/27 06:12:02;;;;;;;5.53;1.67;;;;;;;;;;5010363;28;20180;-77
2021/04/27 06:14:27;;;;;;;1.93;1.60;;;;;;;;;;5010506;28;20586;-72
2021/04/27 06:16:53;;;;;;;4.13;1.90;;;;;;;;;;5018422;28;20191;-77
2021/04/27 06:19:19;;;;;;;3.33;1.90;;;;;;;;;;5024757;28;20186;-72
2021/04/27 06:21:47;;;;;;;3.53;1.73;;;;;;;;;;5010719;28;20179;-73
2021/04/27 06:24:13;;;;;;;4.37;1.73;;;;;;;;;;5009110;28;20300;-73
2021/04/27 06:26:38;;;;;;;2.47;1.63;;;;;;;;;;4998530;28;20175;-71
2021/04/27 06:29:05;;;;;;;3.10;1.53;;;;;;;;;;4990778;28;20234;-72
2021/04/27 06:31:31;;;;;;;3.87;1.67;;;;;;;;;;4990694;28;20227;-73
2021/04/27 06:33:57;;;;;;;5.77;2.00;;;;;;;;;;4990577;28;20268;-73
2021/04/27 06:36:23;;;;;;;3.20;1.70;;;;;;;;;;4993682;28;20263;-72
2021/04/27 06:38:49;;;;;;;3.50;2.00;;;;;;;;;;4978634;28;20216;-72
2021/04/27 06:41:15;;;;;;;2.63;1.47;;;;;;;;;;4994676;28;20185;-72
2021/04/27 06:43:41;;;;;;;2.30;1.80;;;;;;;;;;4994465;28;20177;-72
2021/04/27 06:46:07;;;;;;;2.30;1.80;;;;;;;;;;4978476;28;20350;-73
2021/04/27 06:48:34;;;;;;;4.07;1.93;;;;;;;;;;4996105;28;20184;-72
2021/04/27 06:51:00;;;;;;;4.63;1.87;;;;;;;;;;4995461;28;20270;-72
2021/04/27 06:53:26;;;;;;;5.47;1.70;;;;;;;;;;4994404;28;20223;-72
2021/04/27 06:55:52;;;;;;;2.60;1.70;;;;;;;;;;4994250;28;20232;-72
2021/04/27 06:58:18;;;;;;;3.20;1.80;;;;;;;;;;4995492;28;20208;-72
2021/04/27 07:00:44;;;;;;;2.83;1.90;;;;;;;;;;4994732;28;20180;-72
2021/04/27 07:03:10;;;;;;;3.03;1.40;;;;;;;;;;5013932;28;20278;-71
2021/04/27 07:05:36;;;;;;;3.03;1.60;;;;;;;;;;5014615;28;20191;-71
2021/04/27 07:08:02;;;;;;;3.37;2.07;;;;;;;;;;4997136;28;20203;-71
2021/04/27 07:10:28;;;;;;;6.27;2.00;;;;;;;;;;4996784;28;20187;-71
2021/04/27 07:12:54;;;;;;;4.13;1.80;;;;;;;;;;5013700;28;20172;-71
2021/04/27 07:15:20;;;;;;;2.10;1.53;;;;;;;;;;5013670;28;20304;-71
2021/04/27 07:17:46;;;;;;;2.97;1.73;;;;;;;;;;5013480;28;20310;-71
2021/04/27 07:20:13;;;;;;;6.77;1.90;;;;;;;;;;5013414;28;20215;-71
2021/04/27 07:22:39;;;;;;;3.00;1.70;;;;;;;;;;5014396;28;20179;-72
2021/04/27 07:25:05;;;;;;;2.30;1.53;;;;;;;;;;5014146;28;20205;-71
2021/04/27 07:27:31;;;;;;;3.40;1.60;;;;;;;;;;4997317;28;20187;-71
2021/04/27 07:29:57;;;;;;;2.07;1.50;;;;;;;;;;5014563;28;20179;-72
2021/04/27 07:32:23;;;;;;;2.40;1.40;;;;;;;;;;5014455;28;20204;-72
2021/04/27 07:34:50;;;;;;;7.00;1.50;;;;;;;;;;5014209;28;20216;-72
2021/04/27 07:37:16;;;;;;;4.43;1.47;;;;;;;;;;4996954;28;20204;-72
2021/04/27 07:39:42;;;;;;;2.90;1.50;;;;;;;;;;5013130;28;20594;-72
2021/04/27 07:42:08;;;;;;;2.63;1.50;;;;;;;;;;5014296;28;20182;-72
2021/04/27 07:44:34;;;;;;;3.60;1.33;;;;;;;;;;5014109;28;20221;-72
2021/04/27 07:47:00;;;;;;;4.70;1.83;;;;;;;;;;5012580;28;20623;-72
2021/04/27 07:49:26;;;;;;;5.03;1.40;;;;;;;;;;5014370;28;20724;-72
2021/04/27 07:51:52;;;;;;;3.10;1.60;;;;;;;;;;5012867;28;20182;-72
2021/04/27 07:54:18;;;;;;;6.37;1.50;;;;;;;;;;5012933;28;20199;-73
2021/04/27 07:56:44;;;;;;;5.00;1.60;;;;;;;;;;5012811;28;20290;-73
2021/04/27 07:59:10;;;;;;;4.20;1.67;;;;;;;;;;4996399;28;20209;-72
2021/04/27 08:01:37;;;;;;;4.50;1.57;;;;;;;;;;5012291;28;20214;-73
2021/04/27 08:04:03;;;;;;;2.63;1.43;;;;;;;;;;5012013;28;20186;-73
2021/04/27 08:06:29;;;;;;;3.20;1.40;;;;;;;;;;5010614;28;20182;-72
2021/04/27 08:08:55;;;;;;;2.90;1.40;;;;;;;;;;5016870;28;20217;-72
2021/04/27 08:11:21;;;;;;;3.47;1.80;;;;;;;;;;5013470;28;20213;-72
2021/04/27 08:13:47;;;;;;;2.87;1.50;;;;;;;;;;5019152;28;20191;-71
2021/04/27 08:16:13;;;;;;;2.27;1.40;;;;;;;;;;4996191;28;20271;-72
2021/04/27 08:18:39;;;;;;;4.67;2.00;;;;;;;;;;5011740;28;20213;-70
2021/04/27 08:21:06;;;;;;;3.60;1.80;;;;;;;;;;5013113;28;20269;-70
2021/04/27 08:23:32;;;;;;;4.00;1.63;;;;;;;;;;5013182;28;20179;-72
2021/04/27 08:25:58;;;;;;;4.27;1.80;;;;;;;;;;5011915;28;20207;-72
2021/04/27 08:28:24;;;;;;;3.10;1.70;;;;;;;;;;4995518;28;20189;-72
2021/04/27 08:30:51;;;;;;;6.23;1.57;;;;;;;;;;5011675;28;20185;-70
2021/04/27 08:33:17;;;;;;;6.07;1.90;;;;;;;;;;5011264;28;20270;-71
2021/04/27 08:35:44;;;;;;;4.40;1.70;;;;;;;;;;5012340;28;20258;-71
2021/04/27 08:38:10;;;;;;;3.07;1.57;;;;;;;;;;4998653;28;20214;-73
2021/04/27 08:40:36;;;;;;;3.03;1.60;;;;;;;;;;5012192;28;20179;-71
2021/04/27 08:43:02;;;;;;;3.80;1.67;;;;;;;;;;5013422;28;20183;-72
2021/04/27 08:45:28;;;;;;;5.03;1.40;;;;;;;;;;5013488;28;20197;-71
2021/04/27 08:47:54;;;;;;;1.80;1.30;;;;;;;;;;5013141;28;20622;-71
2021/04/27 08:50:20;;;;;;;1.90;1.50;;;;;;;;;;5012315;28;20189;-72
2021/04/27 08:52:46;;;;;;;2.93;1.30;;;;;;;;;;5013229;28;20696;-72
2021/04/27 08:55:13;;;;;;;2.70;1.60;;;;;;;;;;5011067;28;20209;-71
2021/04/27 08:57:39;;;;;;;4.80;1.67;;;;;;;;;;5016975;28;20208;-75
2021/04/27 09:00:07;;;;;;;3.00;1.23;;;;;;;;;;4993313;28;20805;-72
2021/04/27 09:02:33;;;;;;;2.50;1.63;;;;;;;;;;4992215;28;20184;-72
2021/04/27 09:04:59;;;;;;;2.27;1.50;;;;;;;;;;4993977;28;20200;-72
2021/04/27 09:07:26;;;;;;;3.90;1.70;;;;;;;;;;5031716;28;20188;-72
2021/04/27 09:09:53;;;;;;;2.77;1.53;;;;;;;;;;5031322;28;20178;-72
2021/04/27 09:12:27;;;;;;;2.20;1.40;;;;;;;;;;5030952;28;20727;-72
2021/04/27 09:14:53;;;;;;;3.10;1.40;;;;;;;;;;5032030;28;20198;-72
2021/04/27 09:17:19;;;;;;;3.87;1.53;;;;;;;;;;5014570;28;20198;-72
2021/04/27 09:19:46;;;;;;;2.67;1.60;;;;;;;;;;5031143;28;20376;-72
2021/04/27 09:22:13;;;;;;;3.03;1.53;;;;;;;;;;5030696;28;20603;-72
2021/04/27 09:24:44;;;;;;;2.53;1.60;;;;;;;;;;5031858;28;20277;-72
2021/04/27 09:27:10;;;;;;;1.93;1.60;;;;;;;;;;5030899;28;20175;-72
2021/04/27 09:29:37;;;;;;;6.33;1.83;;;;;;;;;;5014433;28;20186;-72
2021/04/27 09:32:03;;;;;;;4.17;1.60;;;;;;;;;;5030604;28;20236;-72
2021/04/27 09:34:33;;;;;;;2.23;1.57;;;;;;;;;;5031206;28;20716;-72
2021/04/27 09:37:03;;;;;;;4.07;1.73;;;;;;;;;;5030734;28;20258;-72
2021/04/27 09:39:33;;;;;;;2.50;1.50;;;;;;;;;;5029784;28;20257;-72
2021/04/27 09:42:00;;;;;;;3.57;1.53;;;;;;;;;;5011822;28;20172;-72
2021/04/27 09:44:31;;;;;;;3.00;1.53;;;;;;;;;;5010750;28;20568;-71
2021/04/27 09:47:19;;;;;;;4.00;1.70;;;;;;;;;;5011001;28;20175;-72
2021/04/27 09:49:55;;;;;;;4.17;1.50;;;;;;;;;;5011038;28;20180;-73
2021/04/27 09:52:21;;;;;;;2.47;1.47;;;;;;;;;;5010581;28;20191;-72
2021/04/27 09:54:59;;;;;;;4.07;1.50;;;;;;;;;;5010880;28;20254;-72
2021/04/27 09:57:29;;;;;;;3.57;1.60;;;;;;;;;;5010759;28;20239;-73
2021/04/27 09:59:55;;;;;;;2.77;1.30;;;;;;;;;;5012099;28;20182;-72
2021/04/27 10:02:21;;;;;;;6.53;4.27;;;;;;;;;;5010597;28;20605;-72
2021/04/27 10:04:48;;;;;;;5.73;2.00;;;;;;;;;;5010576;28;20222;-72
2021/04/27 10:07:16;;;;;;;2.77;1.53;;;;;;;;;;4994550;28;20238;-72
2021/04/27 10:09:42;;;;;;;3.43;1.60;;;;;;;;;;5011478;28;20647;-72
2021/04/27 10:12:08;;;;;;;3.20;1.50;;;;;;;;;;5014591;28;20182;-72
2021/04/27 10:14:34;;;;;;;3.17;1.63;;;;;;;;;;5015602;28;20227;-72
2021/04/27 10:17:01;;;;;;;2.90;1.47;;;;;;;;;;5014594;28;20199;-73
2021/04/27 10:19:27;;;;;;;2.00;1.30;;;;;;;;;;5014637;28;20172;-73
2021/04/27 10:21:53;;;;;;;4.03;1.60;;;;;;;;;;5014511;28;20179;-73
2021/04/27 10:24:23;;;;;;;1.90;1.50;;;;;;;;;;5014479;28;20306;-74
2021/04/27 10:26:49;;;;;;;2.67;1.30;;;;;;;;;;5014601;28;20167;-73
2021/04/27 10:29:18;;;;;;;5.43;1.50;;;;;;;;;;5014408;28;20552;-72
2021/04/27 10:31:44;;;;;;;3.30;1.50;;;;;;;;;;5014270;28;20179;-74
2021/04/27 10:34:20;;;;;;;1.83;1.50;;;;;;;;;;5015269;28;20227;-74
2021/04/27 10:36:49;;;;;;;3.33;1.50;;;;;;;;;;5015672;28;20211;-73
2021/04/27 10:39:15;;;;;;;3.07;1.47;;;;;;;;;;5015369;28;20583;-74
2021/04/27 10:41:45;;;;;;;2.87;1.43;;;;;;;;;;5014047;28;20542;-73
2021/04/27 10:44:11;;;;;;;2.67;1.50;;;;;;;;;;4997890;28;20203;-76
2021/04/27 10:46:37;;;;;;;2.67;1.60;;;;;;;;;;5014216;28;20183;-75
2021/04/27 10:49:23;;;;;;;1.50;1.40;;;;;;;;;;5015247;28;20203;-73
2021/04/27 10:51:49;;;;;;;3.87;1.40;;;;;;;;;;5015029;28;20176;-75
2021/04/27 10:54:21;;;;;;;2.20;1.43;;;;;;;;;;5015036;28;20202;-76
2021/04/27 10:56:48;;;;;;;1.90;1.50;;;;;;;;;;5015198;28;20186;-76
2021/04/27 10:59:15;;;;;;;4.33;1.83;;;;;;;;;;5013858;28;20210;-74
2021/04/27 11:01:41;;;;;;;1.80;1.33;;;;;;;;;;5013744;28;20183;-71
2021/04/27 11:04:08;;;;;;;3.93;1.53;;;;;;;;;;5013592;28;20198;-71
2021/04/27 11:06:34;;;;;;;3.10;1.43;;;;;;;;;;4997684;28;20262;-70
2021/04/27 11:09:11;;;;;;;2.57;1.40;;;;;;;;;;5013658;28;20238;-71
2021/04/27 11:11:37;;;;;;;2.43;1.50;;;;;;;;;;5014566;28;20167;-71
2021/04/27 11:14:12;;;;;;;3.30;1.37;;;;;;;;;;5013626;28;20187;-70
2021/04/27 11:16:39;;;;;;;3.67;1.47;;;;;;;;;;5012805;28;20197;-72
2021/04/27 11:19:20;;;;;;;2.43;1.30;;;;;;;;;;5013333;28;20259;-72
2021/04/27 11:21:47;;;;;;;2.80;1.50;;;;;;;;;;5007279;28;20184;-72
2021/04/27 11:24:39;;;;;;;2.87;1.50;;;;;;;;;;5005522;28;20207;-72
2021/04/27 11:27:06;;;;;;;1.50;1.10;;;;;;;;;;5012756;28;20231;-71
2021/04/27 11:29:32;;;;;;;2.77;1.30;;;;;;;;;;5013125;28;20186;-72
2021/04/27 11:32:02;;;;;;;2.50;1.57;;;;;;;;;;5013440;28;20647;-75
2021/04/27 11:34:28;;;;;;;1.63;1.30;;;;;;;;;;5014177;28;20595;-71
2021/04/27 11:36:54;;;;;;;1.97;1.30;;;;;;;;;;5014598;28;20176;-71
2021/04/27 11:39:22;;;;;;;3.93;1.40;;;;;;;;;;5014197;28;20610;-71
2021/04/27 11:41:57;;;;;;;2.07;1.40;;;;;;;;;;5014306;28;20172;-72
2021/04/27 11:44:31;;;;;;;1.53;1.13;;;;;;;;;;5012938;28;20206;-74
2021/04/27 11:47:09;;;;;;;3.43;1.57;;;;;;;;;;5012700;28;20176;-72
2021/04/27 11:49:47;;;;;;;3.73;1.40;;;;;;;;;;5014044;28;20186;-72
2021/04/27 11:52:13;;;;;;;4.70;1.60;;;;;;;;;;5013923;28;20183;-71
2021/04/27 11:54:39;;;;;;;2.90;1.57;;;;;;;;;;5012683;28;20262;-71
2021/04/27 11:57:15;;;;;;;5.83;1.83;;;;;;;;;;5012382;28;20172;-71
2021/04/27 11:59:42;;;;;;;4.60;1.40;;;;;;;;;;5013878;28;20178;-72
2021/04/27 12:02:08;;;;;;;1.97;1.30;;;;;;;;;;4984674;28;20239;-71
2021/04/27 12:04:34;;;;;;;1.37;1.27;;;;;;;;;;4994036;28;20204;-72
2021/04/27 12:07:00;;;;;;;3.87;1.33;;;;;;;;;;4993156;28;20204;-71
2021/04/27 12:09:26;;;;;;;2.37;1.47;;;;;;;;;;4994186;28;20191;-73
2021/04/27 12:11:52;;;;;;;2.30;1.40;;;;;;;;;;4992442;28;20180;-73
2021/04/27 12:14:18;;;;;;;2.80;1.40;;;;;;;;;;4992780;28;20231;-72
2021/04/27 12:16:49;;;;;;;2.20;1.50;;;;;;;;;;4993141;28;20307;-73
2021/04/27 12:19:18;;;;;;;1.57;1.40;;;;;;;;;;4992753;28;20219;-72
2021/04/27 12:21:45;;;;;;;2.97;1.50;;;;;;;;;;5010125;28;20670;-72
2021/04/27 12:24:14;;;;;;;2.87;1.47;;;;;;;;;;5011510;28;20243;-72
2021/04/27 12:26:47;;;;;;;4.17;1.30;;;;;;;;;;5010262;28;20183;-72
2021/04/27 12:29:14;;;;;;;1.90;1.37;;;;;;;;;;5012084;28;20870;-71
2021/04/27 12:31:40;;;;;;;3.43;1.37;;;;;;;;;;5011963;28;20669;-73
2021/04/27 12:34:07;;;;;;;4.20;1.53;;;;;;;;;;4995675;28;20762;-74
2021/04/27 12:36:37;;;;;;;2.43;1.50;;;;;;;;;;5012034;28;20191;-72
2021/04/27 12:39:06;;;;;;;1.63;1.27;;;;;;;;;;4995854;28;20203;-72
2021/04/27 12:41:36;;;;;;;2.63;1.30;;;;;;;;;;5011510;28;20201;-73
2021/04/27 12:44:22;;;;;;;3.37;1.33;;;;;;;;;;5011915;28;20666;-74
2021/04/27 12:46:51;;;;;;;3.90;1.40;;;;;;;;;;5019443;28;20558;-73
2021/04/27 12:49:17;;;;;;;2.47;1.23;;;;;;;;;;5015205;28;20201;-74
2021/04/27 12:51:43;;;;;;;2.57;1.60;;;;;;;;;;5025560;28;20620;-73
2021/04/27 12:54:28;;;;;;;1.80;1.50;;;;;;;;;;5012792;28;20207;-73
2021/04/27 12:57:07;;;;;;;4.63;1.30;;;;;;;;;;5011852;28;20271;-73
2021/04/27 12:59:34;;;;;;;4.77;1.40;;;;;;;;;;5011788;28;20192;-73
2021/04/27 13:02:00;;;;;;;3.17;1.47;;;;;;;;;;5011484;28;20203;-72
2021/04/27 13:04:30;;;;;;;5.80;1.40;;;;;;;;;;5010962;28;20202;-73
2021/04/27 13:06:56;;;;;;;3.23;1.40;;;;;;;;;;5011748;28;20202;-72
2021/04/27 13:09:27;;;;;;;3.33;1.60;;;;;;;;;;5010554;28;20611;-72
2021/04/27 13:12:00;;;;;;;4.13;1.40;;;;;;;;;;5012490;28;20225;-72
2021/04/27 13:14:32;;;;;;;3.20;1.60;;;;;;;;;;5012429;28;20199;-72
2021/04/27 13:17:00;;;;;;;2.53;1.60;;;;;;;;;;5012542;28;20643;-72
2021/04/27 13:19:27;;;;;;;3.40;1.40;;;;;;;;;;5011130;28;20228;-72
2021/04/27 13:22:09;;;;;;;2.77;1.50;;;;;;;;;;4994785;28;20245;-72
2021/04/27 13:24:38;;;;;;;3.73;1.40;;;;;;;;;;5012437;28;20217;-72
2021/04/27 13:27:04;;;;;;;4.40;1.50;;;;;;;;;;5012234;28;20266;-72
2021/04/27 13:29:36;;;;;;;2.90;1.47;;;;;;;;;;5010929;28;20617;-72
2021/04/27 13:32:35;;;;;;;6.83;1.50;;;;;;;;;;5012149;28;20179;-72
2021/04/27 13:35:19;;;;;;;2.87;1.63;;;;;;;;;;5010852;28;20318;-72
2021/04/27 13:37:45;;;;;;;3.27;1.53;;;;;;;;;;5012266;28;20678;-72
2021/04/27 13:40:12;;;;;;;2.23;1.47;;;;;;;;;;5011187;28;20179;-72
2021/04/27 13:42:38;;;;;;;3.53;1.60;;;;;;;;;;5010735;28;20548;-72
2021/04/27 13:45:04;;;;;;;3.00;1.77;;;;;;;;;;5010329;28;20203;-72
2021/04/27 13:47:30;;;;;;;3.13;1.30;;;;;;;;;;5010882;28;20270;-72
2021/04/27 13:49:56;;;;;;;3.43;1.60;;;;;;;;;;5010845;28;20207;-72
2021/04/27 13:52:22;;;;;;;2.43;1.60;;;;;;;;;;5011821;28;20179;-72
2021/04/27 13:54:48;;;;;;;3.90;1.77;;;;;;;;;;5011874;28;20693;-72
2021/04/27 13:57:14;;;;;;;3.90;1.77;;;;;;;;;;5010857;28;20678;-72
2021/04/27 13:59:40;;;;;;;2.97;1.80;;;;;;;;;;5012034;28;20207;-72
2021/04/27 14:02:06;;;;;;;1.80;1.30;;;;;;;;;;5010708;28;20528;-72
2021/04/27 14:04:32;;;;;;;2.80;1.77;;;;;;;;;;5011687;28;20617;-72
2021/04/27 14:06:58;;;;;;;2.77;1.40;;;;;;;;;;5011803;28;20184;-72
2021/04/27 14:09:24;;;;;;;1.97;1.57;;;;;;;;;;4994303;28;20245;-72
2021/04/27 14:11:50;;;;;;;3.13;1.80;;;;;;;;;;4994307;28;20191;-72
2021/04/27 14:14:16;;;;;;;3.03;1.73;;;;;;;;;;5011515;28;20204;-72
2021/04/27 14:16:42;;;;;;;5.33;1.93;;;;;;;;;;5010692;28;20544;-72
2021/04/27 14:19:09;;;;;;;2.50;2.00;;;;;;;;;;5010301;28;20206;-72
2021/04/27 14:21:35;;;;;;;6.17;3.17;;;;;;;;;;5011702;28;20178;-72
2021/04/27 14:24:01;;;;;;;3.40;2.07;;;;;;;;;;5010360;28;20179;-72
2021/04/27 14:26:27;;;;;;;3.00;2.00;;;;;;;;;;5011679;28;20259;-72
2021/04/27 14:28:53;;;;;;;3.03;1.80;;;;;;;;;;5010479;28;20184;-72
2021/04/27 14:31:19;;;;;;;5.97;2.07;;;;;;;;;;5011655;28;20191;-72
2021/04/27 14:33:45;;;;;;;3.10;1.73;;;;;;;;;;5011500;28;20266;-72
2021/04/27 14:36:11;;;;;;;5.00;1.90;;;;;;;;;;5011851;28;20238;-72
2021/04/27 14:38:38;;;;;;;2.57;2.00;;;;;;;;;;5011651;28;20337;-72
2021/04/27 14:41:04;;;;;;;3.23;1.90;;;;;;;;;;5010117;28;20211;-72
2021/04/27 14:43:30;;;;;;;5.93;2.10;;;;;;;;;;4994090;28;20187;-72